Indianola, Utah
Current Conditions -  °F | °C
As of 10:55 PM on Saturday 22 Nov 2014 (Local Time) from KPVU Reporting Station
Overcast Overcast  
Wind Chill: 31°   Ceiling: 5000
Heat Index: 36°   Visibility: 10mi
Dew Point: 32°   Wind: 6mph
Humidity: 87%   Direction: 330°NNW
Pressure: 29.94"   Gusts: NA
Location:  39.7497°N, 111.442°W
Report Text: KPVU 230555Z 33005KT 10SM OVC050 02/00 A2994 RMK AO1 60014 10050 20010 52017
Loading
Personal Weather Stations






























Interactive Weather Map New forecast layout! Learn more

10-Day Weather Forecast

Advertisements
Track Severe Weather on mobile